Terminal Aerodrome Forecast
Issued by NWS Bismarck, ND

Home | Current Version | Previous Version | Graphics & Text | Print | Product List | Glossary On
Versions: 1 2 3 4 5 6 7 8 9 10 11 12 13 14 15 16 17 18 19 20 21 22 23 24 25 26 27 28 29 30 31 32 33 34
249
FTUS43 KBIS 240911 AAA
TAFISN
TAF AMD
KISN 240911Z 2409/2506 21004KT P6SM BKN100
     FM241200 VRB03KT 3SM BR BKN025
     FM241600 20004KT P6SM BKN050=

USA.gov is the U.S. government's official web portal to all federal, state and local government web resources and services.